createdAt,value
2018-05-17T00:01:17.196Z,12.99
2018-05-17T00:03:44.817Z,13.03
2018-05-17T00:06:12.393Z,13.01
2018-05-17T00:08:40.018Z,12.96
2018-05-17T00:11:07.639Z,12.79
2018-05-17T00:13:35.499Z,12.73
2018-05-17T00:16:03.562Z,12.67
2018-05-17T00:18:31.193Z,12.61
2018-05-17T00:20:59.260Z,12.48
2018-05-17T00:23:26.910Z,12.47
2018-05-17T00:25:55.061Z,12.37
2018-05-17T00:28:22.639Z,12.32
2018-05-17T00:30:50.211Z,12.33
2018-05-17T00:33:17.820Z,12.32
2018-05-17T00:35:45.475Z,12.27
2018-05-17T00:38:13.057Z,12.32
2018-05-17T00:40:40.637Z,12.19
2018-05-17T00:43:08.243Z,12.07
2018-05-17T00:45:35.854Z,11.99
2018-05-17T00:48:03.428Z,11.96
2018-05-17T00:50:31.044Z,11.89
2018-05-17T00:53:10.484Z,11.93
2018-05-17T00:55:38.068Z,11.80
2018-05-17T00:58:05.704Z,11.79
2018-05-17T01:00:33.937Z,11.80
2018-05-17T01:03:01.544Z,11.72
2018-05-17T01:05:29.310Z,11.70
2018-05-17T01:07:56.885Z,11.71
2018-05-17T01:10:24.864Z,11.64
2018-05-17T01:12:52.603Z,11.64
2018-05-17T01:15:20.226Z,11.54
2018-05-17T01:17:47.814Z,11.57
2018-05-17T01:20:15.537Z,11.42
2018-05-17T01:22:43.341Z,11.42
2018-05-17T01:25:11.121Z,11.46
2018-05-17T01:27:38.931Z,11.58
2018-05-17T01:30:06.627Z,11.58
2018-05-17T01:32:34.221Z,11.56
2018-05-17T01:35:01.910Z,11.53
2018-05-17T01:37:41.257Z,11.47
2018-05-17T01:40:08.865Z,11.41
2018-05-17T01:42:36.502Z,11.42
2018-05-17T01:45:04.089Z,11.37
2018-05-17T01:47:32.034Z,11.29
2018-05-17T01:50:00.249Z,11.25
2018-05-17T01:52:27.865Z,11.27
2018-05-17T01:54:55.621Z,11.29
2018-05-17T01:57:23.247Z,11.35
2018-05-17T01:59:50.830Z,11.24
2018-05-17T02:02:18.459Z,11.19
2018-05-17T02:04:46.078Z,11.12
2018-05-17T02:07:13.653Z,11.07
2018-05-17T02:09:41.266Z,11.00
2018-05-17T02:12:08.873Z,11.04
2018-05-17T02:14:36.481Z,11.06
2018-05-17T02:17:04.069Z,11.06
2018-05-17T02:19:31.693Z,10.98
2018-05-17T02:21:59.273Z,10.94
2018-05-17T02:24:27.669Z,10.98
2018-05-17T02:26:55.999Z,10.92
2018-05-17T02:29:23.616Z,11.04
2018-05-17T02:31:51.190Z,11.04
2018-05-17T02:34:18.809Z,11.09
2018-05-17T02:36:46.397Z,11.07
2018-05-17T02:39:14.031Z,11.02
2018-05-17T02:41:41.650Z,10.90
2018-05-17T02:44:09.243Z,10.97
2018-05-17T02:46:36.857Z,10.97
2018-05-17T02:49:04.534Z,10.98
2018-05-17T02:51:32.096Z,11.00
2018-05-17T02:53:59.804Z,10.95
2018-05-17T02:56:27.421Z,10.95
2018-05-17T02:58:55.040Z,10.95
2018-05-17T03:01:22.664Z,11.01
2018-05-17T03:03:50.260Z,11.05
2018-05-17T03:06:17.915Z,10.96
2018-05-17T03:08:45.530Z,11.01
2018-05-17T03:11:13.113Z,10.96
2018-05-17T03:13:40.717Z,10.96
2018-05-17T03:16:08.345Z,10.90
2018-05-17T03:18:36.502Z,10.88
2018-05-17T03:21:04.125Z,10.98
2018-05-17T03:23:31.729Z,10.92
2018-05-17T03:25:59.352Z,11.04
2018-05-17T03:28:26.941Z,11.00
2018-05-17T03:30:54.797Z,10.97
2018-05-17T03:33:22.385Z,11.05
2018-05-17T03:35:50.240Z,11.05
2018-05-17T03:38:17.851Z,11.01
2018-05-17T03:40:45.936Z,11.03
2018-05-17T03:43:13.565Z,11.11
2018-05-17T03:45:41.193Z,11.03
2018-05-17T03:48:08.828Z,11.08
2018-05-17T03:50:36.401Z,11.02
2018-05-17T03:53:04.022Z,11.09
2018-05-17T03:55:31.632Z,11.06
2018-05-17T03:57:59.209Z,11.22
2018-05-17T04:03:40.408Z,11.15
2018-05-17T04:06:19.556Z,11.15
2018-05-17T04:08:47.218Z,11.11
2018-05-17T04:11:14.801Z,11.19
2018-05-17T04:13:42.589Z,11.30
2018-05-17T04:16:10.350Z,11.35
2018-05-17T04:18:37.945Z,11.37
2018-05-17T04:21:05.601Z,11.35
2018-05-17T04:23:33.231Z,11.45
2018-05-17T04:26:01.072Z,11.32
2018-05-17T04:28:28.739Z,11.49
2018-05-17T04:30:56.327Z,11.53
2018-05-17T04:33:23.947Z,11.57
2018-05-17T04:35:52.011Z,11.55
2018-05-17T04:38:19.649Z,11.65
2018-05-17T04:40:47.281Z,11.64
2018-05-17T04:43:15.557Z,11.70
2018-05-17T04:45:43.218Z,11.78
2018-05-17T04:48:11.834Z,11.89
2018-05-17T04:50:39.417Z,12.04
2018-05-17T04:53:07.112Z,12.15
2018-05-17T04:55:35.252Z,12.19
2018-05-17T04:58:03.017Z,12.38
2018-05-17T05:00:31.190Z,12.37
2018-05-17T05:02:58.832Z,12.39
2018-05-17T05:05:26.736Z,12.47
2018-05-17T05:07:58.234Z,12.42
2018-05-17T05:10:26.373Z,12.54
2018-05-17T05:12:53.968Z,12.57
2018-05-17T05:15:21.559Z,13.31
2018-05-17T05:17:49.338Z,13.15
2018-05-17T05:20:16.916Z,12.87
2018-05-17T05:22:44.740Z,13.19
2018-05-17T05:25:13.332Z,13.31
2018-05-17T05:27:40.939Z,13.81
2018-05-17T05:30:09.154Z,13.73
2018-05-17T05:32:36.905Z,13.69
2018-05-17T05:35:04.530Z,13.85
2018-05-17T05:37:32.302Z,13.78
2018-05-17T05:40:00.015Z,13.90
2018-05-17T05:42:27.648Z,14.30
2018-05-17T05:44:56.169Z,15.28
2018-05-17T05:47:23.758Z,15.92
2018-05-17T05:49:51.689Z,15.66
2018-05-17T05:52:19.448Z,15.43
2018-05-17T05:54:47.103Z,15.06
2018-05-17T05:57:14.976Z,14.79
2018-05-17T05:59:42.639Z,14.76
2018-05-17T06:02:10.405Z,15.84
2018-05-17T06:04:38.264Z,17.60
2018-05-17T06:07:06.050Z,18.13
2018-05-17T06:09:33.632Z,18.55
2018-05-17T06:12:01.551Z,18.71
2018-05-17T06:14:29.202Z,19.33
2018-05-17T06:16:56.799Z,18.76
2018-05-17T06:19:24.689Z,18.46
2018-05-17T06:21:52.317Z,17.60
2018-05-17T06:24:20.058Z,16.70
2018-05-17T06:26:47.679Z,16.26
2018-05-17T06:29:15.330Z,15.39
2018-05-17T06:31:42.949Z,17.05
2018-05-17T06:34:10.545Z,17.86
2018-05-17T06:36:38.220Z,17.68
2018-05-17T06:39:06.790Z,17.82
2018-05-17T06:41:34.432Z,17.62
2018-05-17T06:44:02.022Z,16.81
2018-05-17T06:46:29.652Z,15.88
2018-05-17T06:48:57.248Z,15.64
2018-05-17T06:51:25.446Z,15.03
2018-05-17T06:53:53.081Z,14.61
2018-05-17T06:56:20.733Z,15.38
2018-05-17T06:58:48.371Z,16.88
2018-05-17T07:01:15.974Z,17.72
2018-05-17T07:03:43.608Z,17.81
2018-05-17T07:06:11.193Z,17.54
2018-05-17T07:08:38.809Z,16.93
2018-05-17T07:11:06.394Z,17.84
2018-05-17T07:13:34.005Z,19.53
2018-05-17T07:16:01.600Z,19.69
2018-05-17T07:18:29.387Z,18.83
2018-05-17T07:20:56.828Z,18.97
2018-05-17T07:23:24.463Z,18.14
2018-05-17T07:25:52.108Z,17.56
2018-05-17T07:28:19.700Z,17.02
2018-05-17T07:30:47.324Z,17.40
2018-05-17T07:33:15.131Z,17.37
2018-05-17T07:35:42.823Z,17.13
2018-05-17T07:38:18.158Z,16.90
2018-05-17T07:40:46.022Z,16.95
2018-05-17T07:43:13.800Z,17.67
2018-05-17T07:45:41.620Z,17.60
2018-05-17T07:48:09.365Z,17.60
2018-05-17T07:50:36.990Z,18.85
2018-05-17T07:53:04.600Z,19.00
2018-05-17T07:55:32.559Z,17.95
2018-05-17T07:58:00.173Z,17.54
2018-05-17T08:00:27.791Z,17.35
2018-05-17T08:02:55.416Z,18.65
2018-05-17T08:05:23.038Z,19.34
2018-05-17T08:07:50.616Z,18.95
2018-05-17T08:10:18.240Z,19.53
2018-05-17T08:12:46.491Z,20.13
2018-05-17T08:15:14.330Z,21.11
2018-05-17T08:17:41.919Z,21.06
2018-05-17T08:20:09.553Z,20.17
2018-05-17T08:22:37.154Z,20.09
2018-05-17T08:25:04.774Z,19.64
2018-05-17T08:27:32.353Z,18.62
2018-05-17T08:29:59.961Z,18.84
2018-05-17T08:32:27.572Z,18.66
2018-05-17T08:34:55.161Z,19.55
2018-05-17T08:37:22.827Z,19.57
2018-05-17T08:39:50.414Z,19.25
2018-05-17T08:42:18.057Z,18.51
2018-05-17T08:44:45.642Z,18.15
2018-05-17T08:47:13.831Z,18.74
2018-05-17T08:49:41.470Z,18.76
2018-05-17T08:52:09.528Z,19.11
2018-05-17T08:54:37.848Z,19.45
2018-05-17T08:57:05.647Z,18.88
2018-05-17T08:59:33.404Z,18.47
2018-05-17T09:02:00.981Z,18.15
2018-05-17T09:04:29.405Z,18.62
2018-05-17T09:06:56.994Z,19.05
2018-05-17T09:09:24.766Z,18.83
2018-05-17T09:11:53.483Z,19.65
2018-05-17T09:14:21.061Z,19.58
2018-05-17T09:16:48.665Z,19.56
2018-05-17T09:19:16.741Z,18.67
2018-05-17T09:24:35.285Z,18.48
2018-05-17T09:27:02.874Z,18.09
2018-05-17T09:29:30.493Z,18.22
2018-05-17T09:31:58.112Z,18.23
2018-05-17T09:34:25.693Z,18.07
2018-05-17T09:36:53.319Z,18.75
2018-05-17T09:39:20.998Z,19.02
2018-05-17T09:41:48.577Z,18.70
2018-05-17T09:44:16.307Z,18.37
2018-05-17T09:46:43.925Z,18.45
2018-05-17T09:49:11.500Z,18.06
2018-05-17T09:51:39.134Z,18.38
2018-05-17T09:54:06.728Z,18.65
2018-05-17T09:56:34.576Z,18.79
2018-05-17T09:59:02.740Z,18.90
2018-05-17T10:01:30.432Z,18.70
2018-05-17T10:03:58.076Z,18.51
2018-05-17T10:06:25.679Z,18.87
2018-05-17T10:08:53.311Z,18.95
2018-05-17T10:11:21.513Z,18.66
2018-05-17T10:13:49.142Z,18.59
2018-05-17T10:16:16.724Z,18.72
2018-05-17T10:18:44.768Z,18.21
2018-05-17T10:21:12.361Z,18.45
2018-05-17T10:23:40.557Z,18.38
2018-05-17T10:26:08.196Z,18.24
2018-05-17T10:28:35.834Z,18.23
2018-05-17T10:31:03.448Z,18.00
2018-05-17T10:33:31.091Z,17.93
2018-05-17T10:35:58.789Z,17.92
2018-05-17T10:38:26.372Z,17.44
2018-05-17T10:40:54.005Z,17.11
2018-05-17T10:43:21.581Z,17.06
2018-05-17T10:45:49.162Z,17.62
2018-05-17T10:48:16.786Z,17.93
2018-05-17T10:50:44.401Z,18.16
2018-05-17T10:53:11.995Z,17.80
2018-05-17T10:55:40.209Z,17.59
2018-05-17T10:58:07.795Z,17.61
2018-05-17T11:00:35.468Z,17.39
2018-05-17T11:03:03.777Z,17.56
2018-05-17T11:05:32.053Z,17.25
2018-05-17T11:07:59.669Z,16.90
2018-05-17T11:10:27.851Z,16.74
2018-05-17T11:12:55.743Z,16.76
2018-05-17T11:15:23.396Z,16.69
2018-05-17T11:17:51.270Z,16.93
2018-05-17T11:20:18.889Z,17.32
2018-05-17T11:22:46.507Z,17.12
2018-05-17T11:25:14.097Z,17.22
2018-05-17T11:27:41.737Z,17.43
2018-05-17T11:30:09.382Z,17.76
2018-05-17T11:32:37.661Z,17.23
2018-05-17T11:35:05.281Z,17.22
2018-05-17T11:37:32.901Z,17.46
2018-05-17T11:40:00.486Z,17.86
2018-05-17T11:42:28.101Z,18.26
2018-05-17T11:44:55.917Z,18.26
2018-05-17T11:47:23.537Z,17.86
2018-05-17T11:49:51.117Z,18.14
2018-05-17T11:52:18.708Z,18.03
2018-05-17T11:54:46.496Z,17.98
2018-05-17T11:57:14.125Z,18.06
2018-05-17T11:59:41.965Z,17.72
2018-05-17T12:02:09.997Z,17.93
2018-05-17T12:04:37.620Z,17.39
2018-05-17T12:07:05.203Z,17.83
2018-05-17T12:09:32.781Z,18.12
2018-05-17T12:12:01.142Z,18.03
2018-05-17T12:14:28.733Z,18.06
2018-05-17T12:16:56.369Z,17.77
2018-05-17T12:19:24.034Z,17.74
2018-05-17T12:21:51.650Z,17.58
2018-05-17T12:24:19.295Z,17.51
2018-05-17T12:26:46.880Z,17.22
2018-05-17T12:29:14.465Z,16.94
2018-05-17T12:31:42.184Z,16.60
2018-05-17T12:34:09.757Z,16.90
2018-05-17T12:36:37.344Z,16.92
2018-05-17T12:39:06.729Z,16.97
2018-05-17T12:41:34.370Z,17.09
2018-05-17T12:44:01.949Z,17.06
2018-05-17T12:46:29.524Z,16.97
2018-05-17T12:48:57.154Z,16.96
2018-05-17T12:51:24.778Z,16.80
2018-05-17T12:53:52.503Z,16.85
2018-05-17T12:56:20.073Z,16.82
2018-05-17T12:58:47.821Z,16.88
2018-05-17T13:01:15.417Z,16.80
2018-05-17T13:03:43.053Z,16.74
2018-05-17T13:06:10.637Z,16.69
2018-05-17T13:08:38.268Z,16.59
2018-05-17T13:11:05.887Z,16.42
2018-05-17T13:13:33.763Z,16.24
2018-05-17T13:16:01.970Z,16.29
2018-05-17T13:18:29.587Z,16.17
2018-05-17T13:20:57.825Z,16.18
2018-05-17T13:23:26.013Z,16.11
2018-05-17T13:25:54.268Z,16.01
2018-05-17T13:28:21.893Z,16.01
2018-05-17T13:30:49.493Z,16.12
2018-05-17T13:33:17.113Z,16.22
2018-05-17T13:35:44.702Z,16.00
2018-05-17T13:38:12.337Z,15.88
2018-05-17T13:40:40.097Z,15.82
2018-05-17T13:43:07.721Z,15.65
2018-05-17T13:45:35.303Z,15.56
2018-05-17T13:48:02.921Z,15.59
2018-05-17T13:50:30.511Z,15.62
2018-05-17T13:52:58.301Z,15.69
2018-05-17T13:55:25.897Z,15.59
2018-05-17T13:57:53.481Z,15.52
2018-05-17T14:00:21.538Z,15.65
2018-05-17T14:02:49.249Z,15.76
2018-05-17T14:05:16.897Z,15.57
2018-05-17T14:07:44.484Z,15.42
2018-05-17T14:10:12.093Z,15.28
2018-05-17T14:12:39.681Z,15.39
2018-05-17T14:15:07.359Z,15.48
2018-05-17T14:17:34.909Z,15.48
2018-05-17T14:20:02.754Z,15.29
2018-05-17T14:22:30.350Z,15.42
2018-05-17T14:24:57.937Z,15.30
2018-05-17T14:27:25.558Z,15.27
2018-05-17T14:29:53.432Z,15.29
2018-05-17T14:32:20.810Z,15.11
2018-05-17T14:34:48.397Z,15.12
2018-05-17T14:37:16.001Z,15.09
2018-05-17T14:39:43.624Z,14.93
2018-05-17T14:42:11.813Z,14.79
2018-05-17T14:44:39.409Z,14.81
2018-05-17T14:47:07.037Z,14.90
2018-05-17T14:49:34.677Z,15.05
2018-05-17T14:52:02.297Z,15.04
2018-05-17T14:54:29.930Z,15.04
2018-05-17T14:56:57.510Z,15.12
2018-05-17T14:59:25.145Z,14.99
2018-05-17T15:01:52.724Z,14.92
2018-05-17T15:04:20.353Z,14.88
2018-05-17T15:06:47.933Z,14.87
2018-05-17T15:09:15.540Z,14.85
2018-05-17T15:11:43.158Z,14.67
2018-05-17T15:14:10.741Z,14.61
2018-05-17T15:16:38.361Z,14.35
2018-05-17T15:19:05.998Z,14.45
2018-05-17T15:21:33.591Z,14.42
2018-05-17T15:24:01.204Z,14.43
2018-05-17T15:26:28.864Z,14.51
2018-05-17T15:28:56.482Z,14.52
2018-05-17T15:31:24.074Z,14.38
2018-05-17T15:33:51.691Z,14.43
2018-05-17T15:36:19.343Z,14.35
2018-05-17T15:38:46.968Z,14.44
2018-05-17T15:41:14.602Z,14.58
2018-05-17T15:43:42.936Z,14.41
2018-05-17T15:46:10.814Z,14.30
2018-05-17T15:48:38.433Z,14.35
2018-05-17T15:51:06.216Z,14.41
2018-05-17T15:53:33.840Z,14.34
2018-05-17T15:56:01.712Z,14.16
2018-05-17T15:58:32.724Z,14.13
2018-05-17T16:01:03.522Z,14.18
2018-05-17T16:03:31.371Z,14.08
2018-05-17T16:05:59.001Z,13.96
2018-05-17T16:08:26.615Z,13.98
2018-05-17T16:10:54.444Z,14.04
2018-05-17T16:13:22.060Z,14.01
2018-05-17T16:15:49.650Z,13.99
2018-05-17T16:18:17.276Z,13.92
2018-05-17T16:20:44.857Z,13.94
2018-05-17T16:23:12.486Z,13.99
2018-05-17T16:25:40.062Z,14.12
2018-05-17T16:28:09.196Z,14.15
2018-05-17T16:30:36.813Z,14.16
2018-05-17T16:33:04.450Z,14.12
2018-05-17T16:35:32.060Z,14.14
2018-05-17T16:37:59.646Z,14.20
2018-05-17T16:40:27.273Z,13.98
2018-05-17T16:42:55.065Z,13.88
2018-05-17T16:45:22.681Z,13.88
2018-05-17T16:47:50.265Z,13.80
2018-05-17T16:50:18.325Z,13.67
2018-05-17T16:52:47.819Z,13.76
2018-05-17T16:55:15.591Z,13.66
2018-05-17T16:57:43.222Z,13.62
2018-05-17T17:00:11.123Z,13.62
2018-05-17T17:02:39.502Z,13.66
2018-05-17T17:05:07.178Z,13.73
2018-05-17T17:07:34.724Z,13.89
2018-05-17T17:10:02.337Z,14.06
2018-05-17T17:12:29.953Z,13.92
2018-05-17T17:14:57.532Z,13.94
2018-05-17T17:17:25.332Z,13.87
2018-05-17T17:19:52.961Z,13.85
2018-05-17T17:22:20.544Z,13.76
2018-05-17T17:24:48.121Z,13.80
2018-05-17T17:27:15.751Z,13.83
2018-05-17T17:29:43.342Z,13.81
2018-05-17T17:32:10.925Z,13.80
2018-05-17T17:34:38.768Z,13.71
2018-05-17T17:37:06.358Z,13.79
2018-05-17T17:39:33.973Z,13.75
2018-05-17T17:42:01.556Z,13.77
2018-05-17T17:44:29.164Z,13.79
2018-05-17T17:46:56.744Z,13.61
2018-05-17T17:49:24.397Z,13.60
2018-05-17T17:51:52.572Z,13.57
2018-05-17T17:54:20.157Z,13.60
2018-05-17T17:56:47.768Z,13.41
2018-05-17T17:59:15.353Z,13.53
2018-05-17T18:01:43.149Z,13.50
2018-05-17T18:04:10.735Z,13.56
2018-05-17T18:06:38.334Z,13.48
2018-05-17T18:09:05.962Z,13.46
2018-05-17T18:11:33.851Z,13.47
2018-05-17T18:14:01.852Z,13.49
2018-05-17T18:16:29.444Z,13.51
2018-05-17T18:18:57.090Z,13.52
2018-05-17T18:21:24.691Z,13.54
2018-05-17T18:23:52.281Z,13.45
2018-05-17T18:26:19.921Z,13.40
2018-05-17T18:28:47.518Z,13.38
2018-05-17T18:31:15.113Z,13.41
2018-05-17T18:33:43.704Z,13.40
2018-05-17T18:36:11.284Z,13.43
2018-05-17T18:38:38.925Z,13.33
2018-05-17T18:41:07.133Z,13.23
2018-05-17T18:43:35.152Z,13.18
2018-05-17T18:46:04.374Z,13.15
2018-05-17T18:48:32.193Z,13.21
2018-05-17T18:50:59.940Z,13.29
2018-05-17T18:53:27.574Z,13.27
2018-05-17T18:55:55.198Z,13.18
2018-05-17T18:58:22.932Z,13.30
2018-05-17T19:00:51.041Z,13.20
2018-05-17T19:03:18.669Z,13.18
2018-05-17T19:05:48.093Z,13.08
2018-05-17T19:08:15.948Z,13.00
2018-05-17T19:10:43.574Z,12.98
2018-05-17T19:13:11.187Z,13.04
2018-05-17T19:15:39.380Z,13.03
2018-05-17T19:18:07.495Z,13.06
2018-05-17T19:20:35.277Z,13.05
2018-05-17T19:23:02.974Z,13.02
2018-05-17T19:25:30.614Z,13.13
2018-05-17T19:27:58.230Z,13.12
2018-05-17T19:30:26.067Z,13.28
2018-05-17T19:32:53.693Z,13.23
2018-05-17T19:35:21.304Z,13.23
2018-05-17T19:37:53.229Z,13.13
2018-05-17T19:40:20.813Z,13.11
2018-05-17T19:42:48.435Z,13.07
2018-05-17T19:45:16.145Z,13.11
2018-05-17T19:47:43.665Z,13.02
2018-05-17T19:50:11.372Z,12.85
2018-05-17T19:52:38.952Z,12.86
2018-05-17T19:55:06.560Z,12.94
2018-05-17T19:57:34.185Z,12.98
2018-05-17T20:00:01.909Z,12.90
2018-05-17T20:02:29.526Z,12.96
2018-05-17T20:04:57.143Z,13.04
2018-05-17T20:07:24.892Z,12.97
2018-05-17T20:09:53.013Z,12.92
2018-05-17T20:12:21.330Z,12.96
2018-05-17T20:14:48.948Z,12.97
2018-05-17T20:17:16.534Z,13.00
2018-05-17T20:19:44.153Z,12.95
2018-05-17T20:22:11.737Z,12.91
2018-05-17T20:24:39.349Z,12.97
2018-05-17T20:27:06.933Z,12.96
2018-05-17T20:29:34.544Z,13.04
2018-05-17T20:32:02.742Z,13.01
2018-05-17T20:34:30.666Z,13.03
2018-05-17T20:36:58.243Z,13.06
2018-05-17T20:39:25.832Z,13.07
2018-05-17T20:41:54.192Z,13.08
2018-05-17T20:44:21.780Z,13.09
2018-05-17T20:46:49.428Z,13.05
2018-05-17T20:49:17.018Z,13.00
2018-05-17T20:51:44.635Z,13.04
2018-05-17T20:54:12.688Z,13.06
2018-05-17T20:56:40.314Z,13.06
2018-05-17T20:59:09.460Z,13.06
2018-05-17T21:01:37.422Z,13.06
2018-05-17T21:04:05.037Z,13.15
2018-05-17T21:06:32.661Z,13.11
2018-05-17T21:09:00.306Z,13.06
2018-05-17T21:11:27.932Z,13.01
2018-05-17T21:13:55.518Z,13.03
2018-05-17T21:16:23.147Z,13.04
2018-05-17T21:18:53.250Z,13.16
2018-05-17T21:21:20.937Z,13.09
2018-05-17T21:23:49.255Z,13.16
2018-05-17T21:26:18.156Z,13.16
2018-05-17T21:28:45.786Z,13.16
2018-05-17T21:31:13.400Z,13.19
2018-05-17T21:33:40.976Z,13.23
2018-05-17T21:36:08.620Z,13.25
2018-05-17T21:38:36.236Z,13.22
2018-05-17T21:41:04.250Z,13.21
2018-05-17T21:43:31.837Z,13.26
2018-05-17T21:45:59.436Z,13.33
2018-05-17T21:48:27.175Z,13.26
2018-05-17T21:50:54.805Z,13.24
2018-05-17T21:53:22.393Z,13.35
2018-05-17T21:55:49.977Z,13.29
2018-05-17T21:58:17.631Z,13.27
2018-05-17T22:00:45.209Z,13.24
2018-05-17T22:03:12.825Z,13.17
2018-05-17T22:05:40.597Z,13.17
2018-05-17T22:08:09.836Z,13.22
2018-05-17T22:10:37.416Z,13.21
2018-05-17T22:13:05.092Z,13.16
2018-05-17T22:15:32.714Z,13.11
2018-05-17T22:18:00.314Z,12.94
2018-05-17T22:20:27.952Z,13.06
2018-05-17T22:22:55.544Z,13.13
2018-05-17T22:25:23.129Z,13.17
2018-05-17T22:27:50.756Z,13.21
2018-05-17T22:30:18.344Z,13.26
2018-05-17T22:32:45.963Z,13.28
2018-05-17T22:35:13.546Z,13.19
2018-05-17T22:37:41.163Z,13.08
2018-05-17T22:40:09.580Z,13.05
2018-05-17T22:42:37.204Z,13.08
2018-05-17T22:45:04.813Z,13.01
2018-05-17T22:47:32.425Z,12.98
2018-05-17T22:50:00.016Z,13.05
2018-05-17T22:52:27.782Z,13.02
2018-05-17T22:54:55.406Z,13.09
2018-05-17T22:57:34.769Z,13.19
2018-05-17T23:00:03.068Z,13.05
2018-05-17T23:02:31.303Z,13.00
2018-05-17T23:04:59.470Z,13.00
2018-05-17T23:07:27.241Z,12.99
2018-05-17T23:09:54.877Z,12.86
2018-05-17T23:12:22.461Z,12.86
2018-05-17T23:14:50.125Z,12.86
2018-05-17T23:17:17.713Z,12.92
2018-05-17T23:19:45.349Z,12.93
2018-05-17T23:22:24.677Z,12.91
2018-05-17T23:24:52.308Z,12.90
2018-05-17T23:27:19.931Z,12.87
2018-05-17T23:29:47.517Z,12.84
2018-05-17T23:32:15.104Z,12.83
2018-05-17T23:34:42.725Z,12.83
2018-05-17T23:37:21.792Z,12.82
2018-05-17T23:39:49.373Z,12.84
2018-05-17T23:42:17.000Z,12.87
2018-05-17T23:44:44.645Z,12.93
2018-05-17T23:47:12.229Z,12.88
2018-05-17T23:49:40.101Z,12.80
2018-05-17T23:52:07.717Z,12.74
2018-05-17T23:54:35.333Z,12.71
2018-05-17T23:57:02.911Z,12.75
2018-05-17T23:59:30.533Z,12.80
